Time;durP1;ratioP1;P1;durP2;ratioP2;P2;SDS_P1;SDS_P2;PMS_P1;PMS_P2;Temp;Humidity;BMP_temperature;BMP_pressure;BME280_temperature;BME280_humidity;BME280_pressure;Samples;Min_cycle;Max_cycle;Signal;HPM_P1;HPM_P2
2023/09/14 00:01:00;;;;;;;1.67;0.93;;;;;;;;;;5075156;28;20056;-58
2023/09/14 00:03:26;;;;;;;2.42;1.00;;;;;;;;;;5075282;28;20052;-60
2023/09/14 00:05:55;;;;;;;2.33;0.90;;;;;;;;;;5075228;28;20074;-60
2023/09/14 00:08:22;;;;;;;1.67;0.68;;;;;;;;;;5074870;28;20056;-59
2023/09/14 00:10:53;;;;;;;1.98;1.10;;;;;;;;;;5074714;28;20052;-60
2023/09/14 00:13:20;;;;;;;2.17;0.90;;;;;;;;;;5075359;28;20052;-60
2023/09/14 00:15:47;;;;;;;2.35;0.95;;;;;;;;;;5075136;28;20052;-60
2023/09/14 00:18:14;;;;;;;2.63;0.90;;;;;;;;;;5075083;28;20045;-59
2023/09/14 00:20:41;;;;;;;2.55;0.90;;;;;;;;;;5075036;28;20648;-60
2023/09/14 00:23:09;;;;;;;1.08;0.47;;;;;;;;;;5072708;28;20532;-60
2023/09/14 00:25:36;;;;;;;3.80;1.10;;;;;;;;;;5074774;28;20052;-59
2023/09/14 00:28:02;;;;;;;3.13;0.93;;;;;;;;;;5075353;28;20052;-60
2023/09/14 00:30:29;;;;;;;6.07;1.20;;;;;;;;;;5074738;28;20045;-60
2023/09/14 00:32:56;;;;;;;1.73;1.20;;;;;;;;;;5075142;28;20044;-59
2023/09/14 00:35:23;;;;;;;2.17;0.73;;;;;;;;;;5074852;28;20052;-60
2023/09/14 00:37:50;;;;;;;1.55;0.60;;;;;;;;;;5074926;28;20071;-60
2023/09/14 00:40:18;;;;;;;1.80;1.02;;;;;;;;;;5074593;28;20441;-60
2023/09/14 00:42:45;;;;;;;2.28;0.85;;;;;;;;;;5074603;28;20075;-60
2023/09/14 00:45:13;;;;;;;4.32;1.05;;;;;;;;;;5074557;28;20060;-60
2023/09/14 00:47:42;;;;;;;2.65;1.23;;;;;;;;;;5074175;28;20057;-60
2023/09/14 00:50:09;;;;;;;1.65;0.65;;;;;;;;;;5084564;28;20067;-60
2023/09/14 00:52:37;;;;;;;2.75;1.17;;;;;;;;;;5094801;28;20066;-59
2023/09/14 00:55:05;;;;;;;1.83;1.25;;;;;;;;;;5094784;28;20052;-60
2023/09/14 00:57:33;;;;;;;3.35;1.33;;;;;;;;;;5094532;28;20052;-60
2023/09/14 01:00:00;;;;;;;2.72;0.75;;;;;;;;;;5094325;28;20052;-59
2023/09/14 01:02:27;;;;;;;3.13;1.15;;;;;;;;;;5094531;28;20059;-61
2023/09/14 01:04:54;;;;;;;1.70;0.88;;;;;;;;;;5094514;28;20070;-60
2023/09/14 01:07:20;;;;;;;1.88;0.88;;;;;;;;;;5094491;28;20056;-60
2023/09/14 01:09:47;;;;;;;4.03;1.13;;;;;;;;;;5094017;28;20052;-60
2023/09/14 01:12:15;;;;;;;2.13;1.10;;;;;;;;;;5094347;28;20401;-59
2023/09/14 01:14:48;;;;;;;3.13;0.88;;;;;;;;;;5094032;28;20056;-60
2023/09/14 01:17:17;;;;;;;2.45;1.05;;;;;;;;;;5094187;28;20052;-60
2023/09/14 01:19:45;;;;;;;;;;;;;;;;;;5094419;28;20505;-60
2023/09/14 01:22:23;;;;;;;3.20;0.90;;;;;;;;;;5093286;28;19920;-60
2023/09/14 01:24:52;;;;;;;1.92;0.98;;;;;;;;;;5094210;28;20059;-60
2023/09/14 01:27:22;;;;;;;1.58;0.88;;;;;;;;;;5094158;28;20048;-60
2023/09/14 01:29:49;;;;;;;2.50;1.02;;;;;;;;;;5093914;28;20052;-60
2023/09/14 01:32:16;;;;;;;2.38;0.90;;;;;;;;;;5094026;28;20519;-60
2023/09/14 01:34:43;;;;;;;2.75;0.65;;;;;;;;;;5093968;28;20432;-60
2023/09/14 01:37:09;;;;;;;2.38;0.82;;;;;;;;;;5093697;28;20051;-60
2023/09/14 01:39:37;;;;;;;2.03;1.05;;;;;;;;;;5093603;28;20063;-59
2023/09/14 01:42:04;;;;;;;1.80;0.82;;;;;;;;;;5093226;28;20052;-60
2023/09/14 01:44:32;;;;;;;2.72;0.80;;;;;;;;;;5093334;28;20047;-60
2023/09/14 01:46:59;;;;;;;2.53;0.88;;;;;;;;;;5093475;28;20052;-60
2023/09/14 01:49:25;;;;;;;4.03;1.05;;;;;;;;;;5085969;28;20048;-59
2023/09/14 01:51:52;;;;;;;2.45;1.17;;;;;;;;;;5073157;28;20063;-60
2023/09/14 01:54:19;;;;;;;3.53;1.25;;;;;;;;;;5073051;28;20056;-60
2023/09/14 01:56:46;;;;;;;2.30;1.35;;;;;;;;;;5073304;28;20063;-60
2023/09/14 01:59:12;;;;;;;3.83;1.05;;;;;;;;;;5073250;28;20068;-60
2023/09/14 02:01:41;;;;;;;2.67;1.05;;;;;;;;;;5073115;28;20048;-60
2023/09/14 02:04:07;;;;;;;6.00;1.40;;;;;;;;;;5072958;28;20114;-60
2023/09/14 02:06:34;;;;;;;4.50;0.93;;;;;;;;;;5073168;28;20508;-59
2023/09/14 02:09:01;;;;;;;1.95;0.90;;;;;;;;;;5073099;28;20053;-59
2023/09/14 02:11:28;;;;;;;3.17;1.15;;;;;;;;;;5073109;28;20052;-60
2023/09/14 02:13:55;;;;;;;2.78;1.00;;;;;;;;;;5073310;28;20048;-59
2023/09/14 02:16:21;;;;;;;5.03;1.42;;;;;;;;;;5072764;28;20056;-59
2023/09/14 02:18:49;;;;;;;2.80;1.10;;;;;;;;;;5073137;28;20056;-60
2023/09/14 02:21:16;;;;;;;2.15;1.20;;;;;;;;;;5073296;28;20049;-60
2023/09/14 02:23:43;;;;;;;1.70;1.20;;;;;;;;;;5072551;28;20053;-60
2023/09/14 02:26:10;;;;;;;1.88;0.80;;;;;;;;;;5072966;28;20473;-59
2023/09/14 02:28:37;;;;;;;4.55;1.35;;;;;;;;;;5073084;28;20060;-60
2023/09/14 02:31:06;;;;;;;2.75;0.90;;;;;;;;;;5072892;28;20059;-59
2023/09/14 02:33:33;;;;;;;2.47;0.73;;;;;;;;;;5072665;28;20410;-60
2023/09/14 02:36:01;;;;;;;4.05;1.13;;;;;;;;;;5072785;28;20060;-59
2023/09/14 02:38:28;;;;;;;3.10;1.30;;;;;;;;;;5072738;28;20493;-59
2023/09/14 02:40:54;;;;;;;3.55;1.05;;;;;;;;;;5072416;28;20056;-60
2023/09/14 02:43:22;;;;;;;3.35;0.90;;;;;;;;;;5072915;28;20049;-60
2023/09/14 02:45:49;;;;;;;1.92;0.80;;;;;;;;;;5072717;28;20059;-60
2023/09/14 02:48:16;;;;;;;2.70;0.80;;;;;;;;;;5072845;28;20063;-59
2023/09/14 02:50:43;;;;;;;4.38;1.05;;;;;;;;;;5072520;28;20060;-60
2023/09/14 02:53:11;;;;;;;3.30;1.25;;;;;;;;;;5072563;28;20135;-60
2023/09/14 02:55:39;;;;;;;1.38;0.80;;;;;;;;;;5072117;28;20071;-60
2023/09/14 02:58:07;;;;;;;2.10;0.70;;;;;;;;;;5072409;28;20063;-60
2023/09/14 03:00:33;;;;;;;1.80;0.82;;;;;;;;;;5072113;28;20048;-61
2023/09/14 03:03:00;;;;;;;2.58;1.10;;;;;;;;;;5072233;28;20480;-60
2023/09/14 03:05:27;;;;;;;1.35;0.50;;;;;;;;;;5072161;28;20052;-60
2023/09/14 03:07:54;;;;;;;3.88;1.10;;;;;;;;;;5072187;28;20060;-60
2023/09/14 03:10:22;;;;;;;1.48;0.75;;;;;;;;;;5071922;28;20063;-61
2023/09/14 03:12:49;;;;;;;4.88;0.90;;;;;;;;;;5072233;28;20481;-60
2023/09/14 03:15:15;;;;;;;3.70;1.20;;;;;;;;;;5072299;28;20064;-60
2023/09/14 03:17:42;;;;;;;2.63;0.82;;;;;;;;;;5071992;28;20052;-60
2023/09/14 03:20:10;;;;;;;1.13;0.82;;;;;;;;;;5072321;28;20048;-60
2023/09/14 03:22:37;;;;;;;2.70;1.00;;;;;;;;;;5072176;28;20064;-60
2023/09/14 03:25:04;;;;;;;1.77;0.80;;;;;;;;;;5072019;28;20052;-60
2023/09/14 03:27:32;;;;;;;3.42;1.63;;;;;;;;;;5071143;28;20067;-60
2023/09/14 03:29:59;;;;;;;2.80;0.70;;;;;;;;;;5071794;28;20405;-60
2023/09/14 03:32:26;;;;;;;1.98;1.10;;;;;;;;;;5072220;28;20048;-60
2023/09/14 03:34:53;;;;;;;2.40;1.10;;;;;;;;;;5071671;28;20170;-60
2023/09/14 03:37:19;;;;;;;1.45;1.00;;;;;;;;;;5071096;28;20103;-60
2023/09/14 03:39:46;;;;;;;2.63;1.10;;;;;;;;;;5071391;28;20482;-60
2023/09/14 03:42:13;;;;;;;3.75;1.60;;;;;;;;;;5071773;28;20049;-60
2023/09/14 03:44:41;;;;;;;3.03;1.42;;;;;;;;;;5073512;28;20481;-60
2023/09/14 03:47:08;;;;;;;2.10;1.02;;;;;;;;;;5075579;28;20417;-60
2023/09/14 03:49:34;;;;;;;2.55;1.00;;;;;;;;;;5075470;28;20410;-60
2023/09/14 03:52:01;;;;;;;2.85;0.90;;;;;;;;;;5075310;28;20381;-60
2023/09/14 03:54:28;;;;;;;3.75;1.30;;;;;;;;;;5075522;28;20389;-61
2023/09/14 03:56:55;;;;;;;2.42;1.33;;;;;;;;;;5075325;28;20485;-60
2023/09/14 03:59:22;;;;;;;3.45;1.83;;;;;;;;;;5075379;28;20535;-60
2023/09/14 04:01:50;;;;;;;3.85;1.40;;;;;;;;;;5075210;28;20044;-60
2023/09/14 04:04:17;;;;;;;2.83;1.50;;;;;;;;;;5075265;28;20049;-60
2023/09/14 04:06:43;;;;;;;2.47;0.98;;;;;;;;;;5074736;28;20052;-60
2023/09/14 04:09:10;;;;;;;3.00;1.23;;;;;;;;;;5075197;28;20056;-60
2023/09/14 04:11:37;;;;;;;2.42;1.08;;;;;;;;;;5074901;28;20044;-60
2023/09/14 04:14:04;;;;;;;1.52;1.13;;;;;;;;;;5074616;28;20048;-60
2023/09/14 04:16:30;;;;;;;3.90;1.15;;;;;;;;;;5074355;28;20052;-60
2023/09/14 04:19:00;;;;;;;2.45;1.30;;;;;;;;;;5074405;28;20056;-60
2023/09/14 04:21:28;;;;;;;4.72;1.20;;;;;;;;;;5074200;28;20052;-60
2023/09/14 04:23:54;;;;;;;3.30;0.88;;;;;;;;;;5074317;28;20057;-60
2023/09/14 04:26:21;;;;;;;2.13;1.63;;;;;;;;;;5074237;28;20067;-61
2023/09/14 04:28:48;;;;;;;3.00;0.93;;;;;;;;;;5074151;28;20056;-61
2023/09/14 04:31:15;;;;;;;2.78;1.02;;;;;;;;;;5074328;28;20071;-60
2023/09/14 04:33:42;;;;;;;1.92;0.90;;;;;;;;;;5074599;28;20052;-60
2023/09/14 04:36:11;;;;;;;2.80;0.98;;;;;;;;;;5074122;28;20057;-60
2023/09/14 04:38:38;;;;;;;6.35;1.15;;;;;;;;;;5074591;28;20052;-60
2023/09/14 04:41:05;;;;;;;1.98;1.08;;;;;;;;;;5073882;28;20520;-60
2023/09/14 04:43:32;;;;;;;1.40;0.82;;;;;;;;;;5074504;28;20052;-60
2023/09/14 04:46:00;;;;;;;6.88;1.27;;;;;;;;;;5074223;28;20052;-61
2023/09/14 04:48:26;;;;;;;5.25;1.20;;;;;;;;;;5074426;28;20056;-60
2023/09/14 04:50:55;;;;;;;4.10;1.13;;;;;;;;;;5074040;28;20409;-60
2023/09/14 04:53:24;;;;;;;2.58;1.42;;;;;;;;;;5073681;28;20052;-60
2023/09/14 04:55:50;;;;;;;7.13;0.80;;;;;;;;;;5073467;28;20057;-60
2023/09/14 04:58:17;;;;;;;1.90;1.15;;;;;;;;;;5073820;28;20063;-60
2023/09/14 05:00:47;;;;;;;1.70;0.70;;;;;;;;;;5073873;28;20508;-59
2023/09/14 05:03:14;;;;;;;1.80;1.00;;;;;;;;;;5074016;28;20057;-59
2023/09/14 05:05:41;;;;;;;3.05;1.10;;;;;;;;;;5073434;28;20071;-59
2023/09/14 05:08:08;;;;;;;2.10;0.95;;;;;;;;;;5073904;28;20114;-59
2023/09/14 05:10:36;;;;;;;1.92;1.27;;;;;;;;;;5073614;28;20060;-59
2023/09/14 05:13:03;;;;;;;2.03;1.27;;;;;;;;;;5073598;28;20466;-59
2023/09/14 05:15:30;;;;;;;2.67;1.45;;;;;;;;;;5073282;28;20056;-59
2023/09/14 05:17:57;;;;;;;4.25;1.38;;;;;;;;;;5073547;28;20057;-60
2023/09/14 05:20:23;;;;;;;1.92;0.98;;;;;;;;;;5073451;28;20053;-59
2023/09/14 05:22:50;;;;;;;3.45;1.23;;;;;;;;;;5073039;28;20052;-61
2023/09/14 05:25:17;;;;;;;2.50;1.30;;;;;;;;;;5073182;28;20059;-61
2023/09/14 05:27:45;;;;;;;4.18;1.38;;;;;;;;;;5073628;28;20401;-60
2023/09/14 05:30:12;;;;;;;2.92;1.45;;;;;;;;;;5073561;28;20063;-60
2023/09/14 05:32:40;;;;;;;2.50;1.35;;;;;;;;;;5073394;28;20446;-61
2023/09/14 05:35:07;;;;;;;2.33;1.15;;;;;;;;;;5073237;28;20059;-61
2023/09/14 05:37:34;;;;;;;2.95;1.60;;;;;;;;;;5073352;28;20063;-60
2023/09/14 05:40:00;;;;;;;3.10;1.38;;;;;;;;;;5072983;28;20053;-60
2023/09/14 05:42:27;;;;;;;2.72;1.27;;;;;;;;;;5073251;28;20465;-60
2023/09/14 05:44:56;;;;;;;4.55;1.50;;;;;;;;;;5073016;28;20055;-61
2023/09/14 05:47:22;;;;;;;1.73;0.93;;;;;;;;;;5073204;28;20048;-61
2023/09/14 05:49:49;;;;;;;2.38;1.23;;;;;;;;;;5072732;28;20060;-61
2023/09/14 05:52:16;;;;;;;1.10;0.70;;;;;;;;;;5072503;28;20058;-60
2023/09/14 05:54:43;;;;;;;4.07;1.52;;;;;;;;;;5071988;28;20067;-61
2023/09/14 05:57:10;;;;;;;5.38;1.25;;;;;;;;;;5072392;28;20053;-59
2023/09/14 05:59:37;;;;;;;2.85;1.48;;;;;;;;;;5072489;28;20055;-60
2023/09/14 06:02:05;;;;;;;1.73;1.10;;;;;;;;;;5072401;28;20389;-60
2023/09/14 06:04:32;;;;;;;1.52;1.08;;;;;;;;;;5072026;28;20053;-60
2023/09/14 06:06:59;;;;;;;2.17;1.25;;;;;;;;;;5071238;28;20053;-60
2023/09/14 06:09:26;;;;;;;2.38;1.17;;;;;;;;;;5072272;28;20075;-60
2023/09/14 06:11:53;;;;;;;2.70;1.30;;;;;;;;;;5072498;28;20049;-61
2023/09/14 06:14:19;;;;;;;2.17;0.93;;;;;;;;;;5072562;28;20071;-60
2023/09/14 06:16:46;;;;;;;2.80;1.08;;;;;;;;;;5072258;28;20060;-60
2023/09/14 06:19:14;;;;;;;4.05;1.27;;;;;;;;;;5072295;28;20131;-61
2023/09/14 06:21:41;;;;;;;3.17;1.05;;;;;;;;;;5072398;28;20057;-60
2023/09/14 06:24:09;;;;;;;2.00;0.85;;;;;;;;;;5072233;28;20178;-61
2023/09/14 06:26:36;;;;;;;4.10;1.20;;;;;;;;;;5072301;28;20053;-60
2023/09/14 06:29:03;;;;;;;3.72;1.15;;;;;;;;;;5072387;28;20067;-61
2023/09/14 06:31:30;;;;;;;6.15;2.58;;;;;;;;;;5072306;28;20478;-60
2023/09/14 06:33:57;;;;;;;2.15;1.50;;;;;;;;;;5072532;28;20075;-61
2023/09/14 06:36:25;;;;;;;2.40;1.10;;;;;;;;;;5072029;28;20071;-61
2023/09/14 06:38:52;;;;;;;2.17;1.08;;;;;;;;;;5072336;28;20057;-60
2023/09/14 06:41:18;;;;;;;4.10;1.15;;;;;;;;;;5071847;28;20123;-59
2023/09/14 06:43:45;;;;;;;2.45;1.20;;;;;;;;;;5071760;28;20060;-61
2023/09/14 06:46:12;;;;;;;2.10;1.05;;;;;;;;;;5072269;28;20490;-61
2023/09/14 06:48:39;;;;;;;1.75;0.90;;;;;;;;;;5072358;28;20405;-60
2023/09/14 06:51:06;;;;;;;2.42;1.02;;;;;;;;;;5072013;28;20071;-60
2023/09/14 06:53:34;;;;;;;3.30;1.13;;;;;;;;;;5072116;28;20075;-61
2023/09/14 06:56:05;;;;;;;3.67;0.98;;;;;;;;;;5072150;28;20052;-60
2023/09/14 06:58:32;;;;;;;2.63;1.45;;;;;;;;;;5072182;28;20071;-60
2023/09/14 07:01:02;;;;;;;6.07;1.65;;;;;;;;;;5072022;28;20056;-60
2023/09/14 07:03:29;;;;;;;2.10;1.35;;;;;;;;;;5071904;28;20504;-61
2023/09/14 07:05:55;;;;;;;2.03;1.17;;;;;;;;;;5071656;28;20075;-60
2023/09/14 07:08:22;;;;;;;1.65;0.85;;;;;;;;;;5072053;28;20053;-60
2023/09/14 07:10:50;;;;;;;3.75;1.70;;;;;;;;;;5071925;28;20056;-61
2023/09/14 07:13:17;;;;;;;1.85;1.23;;;;;;;;;;5072136;28;20049;-60
2023/09/14 07:15:44;;;;;;;3.47;1.70;;;;;;;;;;5071936;28;20382;-60
2023/09/14 07:18:11;;;;;;;2.25;1.23;;;;;;;;;;5073172;28;20052;-61
2023/09/14 07:20:38;;;;;;;3.03;1.45;;;;;;;;;;5075660;28;20056;-60
2023/09/14 07:23:05;;;;;;;4.30;1.50;;;;;;;;;;5075494;28;20040;-60
2023/09/14 07:25:32;;;;;;;3.60;1.42;;;;;;;;;;5075517;28;20392;-60
2023/09/14 07:28:01;;;;;;;3.25;1.50;;;;;;;;;;5075807;28;20052;-60
2023/09/14 07:30:27;;;;;;;2.08;1.33;;;;;;;;;;5075672;28;20057;-60
2023/09/14 07:32:54;;;;;;;2.75;1.27;;;;;;;;;;5075533;28;20048;-61
2023/09/14 07:35:21;;;;;;;2.83;1.58;;;;;;;;;;5075459;28;20098;-60
2023/09/14 07:37:48;;;;;;;2.05;1.27;;;;;;;;;;5075372;28;20052;-60
2023/09/14 07:40:14;;;;;;;3.45;1.85;;;;;;;;;;5081150;28;20047;-60
2023/09/14 07:42:41;;;;;;;2.97;1.52;;;;;;;;;;5095776;28;20055;-60
2023/09/14 07:45:10;;;;;;;3.70;1.75;;;;;;;;;;5095610;28;20052;-60
2023/09/14 07:47:36;;;;;;;3.90;1.27;;;;;;;;;;5095749;28;20048;-60
2023/09/14 07:50:03;;;;;;;4.43;1.77;;;;;;;;;;5095845;28;20059;-60
2023/09/14 07:52:30;;;;;;;7.88;1.52;;;;;;;;;;5095412;28;20052;-61
2023/09/14 07:54:57;;;;;;;2.30;1.35;;;;;;;;;;5095349;28;20130;-61
2023/09/14 07:57:24;;;;;;;2.38;1.58;;;;;;;;;;5095434;28;20052;-60
2023/09/14 07:59:50;;;;;;;4.07;1.35;;;;;;;;;;5095648;28;20457;-61
2023/09/14 08:02:19;;;;;;;2.75;1.17;;;;;;;;;;5095358;28;20404;-60
2023/09/14 08:04:46;;;;;;;4.05;1.50;;;;;;;;;;5095227;28;20417;-61
2023/09/14 08:07:14;;;;;;;2.78;1.48;;;;;;;;;;5095339;28;20059;-61
2023/09/14 08:09:41;;;;;;;4.18;1.70;;;;;;;;;;5095204;28;20058;-61
2023/09/14 08:12:08;;;;;;;4.13;2.22;;;;;;;;;;5095259;28;20051;-61
2023/09/14 08:14:35;;;;;;;2.42;1.58;;;;;;;;;;5095096;28;20055;-61
2023/09/14 08:17:01;;;;;;;2.58;1.10;;;;;;;;;;5095075;28;20052;-58
2023/09/14 08:19:29;;;;;;;2.88;1.60;;;;;;;;;;5094630;28;20048;-60
2023/09/14 08:21:57;;;;;;;2.72;1.38;;;;;;;;;;5094598;28;20059;-61
2023/09/14 08:24:24;;;;;;;3.38;1.83;;;;;;;;;;5095028;28;20051;-61
2023/09/14 08:26:51;;;;;;;3.60;2.10;;;;;;;;;;5094481;28;20178;-61
2023/09/14 08:29:17;;;;;;;3.05;1.20;;;;;;;;;;5094696;28;20056;-60
2023/09/14 08:31:45;;;;;;;3.95;1.67;;;;;;;;;;5094427;28;20063;-61
2023/09/14 08:34:13;;;;;;;2.45;1.60;;;;;;;;;;5094815;28;20059;-61
2023/09/14 08:36:41;;;;;;;3.35;1.60;;;;;;;;;;5094350;28;20052;-61
2023/09/14 08:39:08;;;;;;;3.07;1.20;;;;;;;;;;5094489;28;20413;-59
2023/09/14 08:41:36;;;;;;;2.20;1.20;;;;;;;;;;5073709;28;20067;-58
2023/09/14 08:44:03;;;;;;;5.22;1.55;;;;;;;;;;5074002;28;20158;-59
2023/09/14 08:46:31;;;;;;;3.00;1.42;;;;;;;;;;5073951;28;20067;-59
2023/09/14 08:48:58;;;;;;;2.97;1.20;;;;;;;;;;5074556;28;20052;-59
2023/09/14 08:51:27;;;;;;;5.10;1.63;;;;;;;;;;5074069;28;20056;-60
2023/09/14 08:53:56;;;;;;;2.67;1.38;;;;;;;;;;5074222;28;20055;-60
2023/09/14 08:56:24;;;;;;;6.47;1.33;;;;;;;;;;5073693;28;20053;-60
2023/09/14 08:58:51;;;;;;;1.63;1.10;;;;;;;;;;5074376;28;20056;-60
2023/09/14 09:01:18;;;;;;;4.73;1.83;;;;;;;;;;5073947;28;20071;-61
2023/09/14 09:03:45;;;;;;;3.60;1.45;;;;;;;;;;5074357;28;20110;-61
2023/09/14 09:06:12;;;;;;;3.60;1.55;;;;;;;;;;5074123;28;20071;-61
2023/09/14 09:08:39;;;;;;;2.38;1.15;;;;;;;;;;5074305;28;20052;-61
2023/09/14 09:11:07;;;;;;;3.17;1.27;;;;;;;;;;5074138;28;20059;-61
2023/09/14 09:13:34;;;;;;;4.30;1.45;;;;;;;;;;5073868;28;20048;-61
2023/09/14 09:16:01;;;;;;;3.15;1.40;;;;;;;;;;5074016;28;20067;-60
2023/09/14 09:18:28;;;;;;;3.83;1.25;;;;;;;;;;5073558;28;20056;-61
2023/09/14 09:20:55;;;;;;;5.75;1.83;;;;;;;;;;5073951;28;20053;-61
2023/09/14 09:23:22;;;;;;;2.17;1.15;;;;;;;;;;5073867;28;20376;-61
2023/09/14 09:25:49;;;;;;;2.15;1.25;;;;;;;;;;5073600;28;20401;-61
2023/09/14 09:28:17;;;;;;;4.40;1.37;;;;;;;;;;5073821;28;20053;-61
2023/09/14 09:30:45;;;;;;;1.33;0.70;;;;;;;;;;5073434;28;20060;-61
2023/09/14 09:33:12;;;;;;;2.65;1.23;;;;;;;;;;5073634;28;20064;-61
2023/09/14 09:35:39;;;;;;;3.45;1.10;;;;;;;;;;5073287;28;20056;-61
2023/09/14 09:38:11;;;;;;;1.90;0.90;;;;;;;;;;5073516;28;20461;-59
2023/09/14 09:40:41;;;;;;;2.35;1.10;;;;;;;;;;5072753;28;20056;-59
2023/09/14 09:43:07;;;;;;;1.80;0.73;;;;;;;;;;5072449;28;20059;-59
2023/09/14 09:45:39;;;;;;;1.55;0.85;;;;;;;;;;5073017;28;20446;-61
2023/09/14 09:48:07;;;;;;;1.80;0.75;;;;;;;;;;5072749;28;20079;-60
2023/09/14 09:50:34;;;;;;;1.67;0.87;;;;;;;;;;5072766;28;20417;-60
2023/09/14 09:53:02;;;;;;;1.67;0.77;;;;;;;;;;5073054;28;20512;-60
2023/09/14 09:55:30;;;;;;;2.22;0.95;;;;;;;;;;5072909;28;20044;-61
2023/09/14 09:57:58;;;;;;;1.50;0.70;;;;;;;;;;5073067;28;20397;-61
2023/09/14 10:00:28;;;;;;;1.13;0.52;;;;;;;;;;5073089;28;20052;-61
2023/09/14 10:02:57;;;;;;;1.67;0.80;;;;;;;;;;5072897;28;20061;-61
2023/09/14 10:05:30;;;;;;;3.50;0.85;;;;;;;;;;5072585;28;20060;-61
2023/09/14 10:07:58;;;;;;;2.08;1.17;;;;;;;;;;5072837;28;20078;-61
2023/09/14 10:10:25;;;;;;;3.20;0.93;;;;;;;;;;5072431;28;20500;-60
2023/09/14 10:12:53;;;;;;;2.13;0.70;;;;;;;;;;5072731;28;20053;-60
2023/09/14 10:15:20;;;;;;;1.65;0.85;;;;;;;;;;5072635;28;20045;-61
2023/09/14 10:17:48;;;;;;;1.80;0.85;;;;;;;;;;5072679;28;20052;-61
2023/09/14 10:20:17;;;;;;;1.90;0.75;;;;;;;;;;5072781;28;20060;-61
2023/09/14 10:22:44;;;;;;;2.17;0.80;;;;;;;;;;5072580;28;20049;-61
2023/09/14 10:25:11;;;;;;;1.70;0.93;;;;;;;;;;5072452;28;20059;-60
2023/09/14 10:27:38;;;;;;;2.50;0.90;;;;;;;;;;5072380;28;20056;-61
2023/09/14 10:30:06;;;;;;;1.70;0.90;;;;;;;;;;5072593;28;20049;-60
2023/09/14 10:32:33;;;;;;;;;;;;;;;;;;5072628;28;20059;-60
2023/09/14 10:35:01;;;;;;;3.50;0.93;;;;;;;;;;5072179;28;19927;-60
2023/09/14 10:37:29;;;;;;;1.40;0.85;;;;;;;;;;5072477;28;20470;-60
2023/09/14 10:39:56;;;;;;;1.52;0.80;;;;;;;;;;5072014;28;20052;-60
2023/09/14 10:42:23;;;;;;;2.47;1.20;;;;;;;;;;5072156;28;20055;-60
2023/09/14 10:44:50;;;;;;;2.72;0.85;;;;;;;;;;5072250;28;20055;-60
2023/09/14 10:47:18;;;;;;;1.63;0.70;;;;;;;;;;5072207;28;20056;-60
2023/09/14 10:49:46;;;;;;;1.38;0.73;;;;;;;;;;5072252;28;20053;-60
2023/09/14 10:52:13;;;;;;;1.63;0.95;;;;;;;;;;5071966;28;20067;-60
2023/09/14 10:54:41;;;;;;;1.25;0.60;;;;;;;;;;5071797;28;20044;-60
2023/09/14 10:57:13;;;;;;;3.55;1.10;;;;;;;;;;5072146;28;20446;-60
2023/09/14 10:59:46;;;;;;;3.08;1.25;;;;;;;;;;5072133;28;20397;-60
2023/09/14 11:02:33;;;;;;;2.22;0.70;;;;;;;;;;5071910;28;20139;-60
2023/09/14 11:05:13;;;;;;;1.95;0.68;;;;;;;;;;5071712;28;20453;-60
2023/09/14 11:07:40;;;;;;;1.05;0.80;;;;;;;;;;5072133;28;20052;-61
2023/09/14 11:10:10;;;;;;;2.50;0.80;;;;;;;;;;5072051;28;20059;-60
2023/09/14 11:12:37;;;;;;;1.45;0.70;;;;;;;;;;5071978;28;20052;-60
2023/09/14 11:15:14;;;;;;;1.42;0.60;;;;;;;;;;5071966;28;20044;-60
2023/09/14 11:17:43;;;;;;;1.27;0.63;;;;;;;;;;5072078;28;20048;-61
2023/09/14 11:20:25;;;;;;;1.88;0.90;;;;;;;;;;5071842;28;20467;-60
2023/09/14 11:22:52;;;;;;;2.45;0.80;;;;;;;;;;5071915;28;20054;-60
2023/09/14 11:25:26;;;;;;;1.20;0.80;;;;;;;;;;5072341;28;20044;-60
2023/09/14 11:27:53;;;;;;;1.02;0.70;;;;;;;;;;5072031;28;20059;-61
2023/09/14 11:30:21;;;;;;;2.67;1.00;;;;;;;;;;5071697;28;20052;-60
2023/09/14 11:32:48;;;;;;;1.77;0.77;;;;;;;;;;5071701;28;20120;-60
2023/09/14 11:35:14;;;;;;;1.83;0.85;;;;;;;;;;5071726;28;20051;-60
2023/09/14 11:37:41;;;;;;;1.40;0.73;;;;;;;;;;5071724;28;20504;-61
2023/09/14 11:40:11;;;;;;;1.30;0.90;;;;;;;;;;5071126;28;20057;-60
2023/09/14 11:42:57;;;;;;;1.10;0.65;;;;;;;;;;5071417;28;20064;-60
2023/09/14 11:45:25;;;;;;;1.73;0.80;;;;;;;;;;5071815;28;20060;-61
2023/09/14 11:47:52;;;;;;;1.90;0.80;;;;;;;;;;5071862;28;20052;-60
2023/09/14 11:50:20;;;;;;;1.73;0.95;;;;;;;;;;5071712;28;20057;-60
2023/09/14 11:52:47;;;;;;;2.33;0.80;;;;;;;;;;5071726;28;20477;-59
2023/09/14 11:55:17;;;;;;;2.23;1.27;;;;;;;;;;5071779;28;20049;-60
2023/09/14 11:57:44;;;;;;;2.15;0.95;;;;;;;;;;5071607;28;20052;-60
2023/09/14 12:00:11;;;;;;;2.22;0.68;;;;;;;;;;5071724;28;20053;-60
2023/09/14 12:02:39;;;;;;;1.48;0.68;;;;;;;;;;5071776;28;20044;-60
2023/09/14 12:05:07;;;;;;;1.75;0.70;;;;;;;;;;5072114;28;20406;-60
2023/09/14 12:07:34;;;;;;;3.65;0.90;;;;;;;;;;5074723;28;20052;-59
2023/09/14 12:10:02;;;;;;;1.58;0.85;;;;;;;;;;5074767;28;20056;-59
2023/09/14 12:12:33;;;;;;;2.10;0.93;;;;;;;;;;5074734;28;20418;-60
2023/09/14 12:15:01;;;;;;;3.65;1.20;;;;;;;;;;5074889;28;20358;-59
2023/09/14 12:17:28;;;;;;;;;;;;;;;;;;5075694;28;20052;-60
2023/09/14 12:19:59;;;;;;;2.35;0.77;;;;;;;;;;5075173;28;19920;-59
2023/09/14 12:22:26;;;;;;;2.65;1.00;;;;;;;;;;5074938;28;20052;-60
2023/09/14 12:24:55;;;;;;;2.28;0.77;;;;;;;;;;5074891;28;20052;-60
2023/09/14 12:27:23;;;;;;;1.40;0.52;;;;;;;;;;5074758;28;20405;-60
2023/09/14 12:29:54;;;;;;;1.85;1.00;;;;;;;;;;5074453;28;20413;-59
2023/09/14 12:32:25;;;;;;;1.85;0.77;;;;;;;;;;5074416;28;20056;-60
2023/09/14 12:34:52;;;;;;;3.10;1.35;;;;;;;;;;5074639;28;20048;-59
2023/09/14 12:37:23;;;;;;;1.67;0.70;;;;;;;;;;5074565;28;20052;-59
2023/09/14 12:39:51;;;;;;;2.20;0.80;;;;;;;;;;5073806;28;20067;-60
2023/09/14 12:42:19;;;;;;;1.38;0.73;;;;;;;;;;5073956;28;20059;-58
2023/09/14 12:44:46;;;;;;;3.87;1.03;;;;;;;;;;5074211;28;20060;-59
2023/09/14 12:47:13;;;;;;;2.42;1.10;;;;;;;;;;5074380;28;20489;-60
2023/09/14 12:49:41;;;;;;;2.83;0.80;;;;;;;;;;5074076;28;20078;-59
2023/09/14 12:52:10;;;;;;;1.98;0.85;;;;;;;;;;5074087;28;20060;-59
2023/09/14 12:54:42;;;;;;;1.90;0.80;;;;;;;;;;5074222;28;20052;-59
2023/09/14 12:57:11;;;;;;;1.23;0.90;;;;;;;;;;5073905;28;20048;-60
2023/09/14 12:59:39;;;;;;;1.73;0.82;;;;;;;;;;5079122;28;20515;-58
2023/09/14 13:02:06;;;;;;;1.77;0.75;;;;;;;;;;5077905;28;20052;-45
2023/09/14 13:04:37;;;;;;;1.23;0.70;;;;;;;;;;5074787;28;20434;-47
2023/09/14 13:07:04;;;;;;;3.58;1.05;;;;;;;;;;5080308;28;20527;-46
2023/09/14 13:09:34;;;;;;;2.03;0.90;;;;;;;;;;5089896;28;20051;-48
2023/09/14 13:12:02;;;;;;;1.90;1.17;;;;;;;;;;5083662;28;20075;-48
2023/09/14 13:14:29;;;;;;;1.50;1.02;;;;;;;;;;5077705;28;20055;-45
2023/09/14 13:16:57;;;;;;;1.40;0.70;;;;;;;;;;5085496;28;20052;-50
2023/09/14 13:19:25;;;;;;;1.85;0.95;;;;;;;;;;5083900;28;20567;-52
2023/09/14 13:21:52;;;;;;;3.10;1.00;;;;;;;;;;5088918;28;20052;-48
2023/09/14 13:24:20;;;;;;;2.10;0.80;;;;;;;;;;5089655;28;20048;-49
2023/09/14 13:26:52;;;;;;;1.75;0.80;;;;;;;;;;5093734;28;20404;-48
2023/09/14 13:29:20;;;;;;;1.48;0.70;;;;;;;;;;5080170;28;20071;-48
2023/09/14 13:31:48;;;;;;;2.13;0.80;;;;;;;;;;5080746;28;20058;-48
2023/09/14 13:34:17;;;;;;;1.77;1.13;;;;;;;;;;5073932;28;20063;-48
2023/09/14 13:36:43;;;;;;;;;;;;;;;;;;5073938;28;20052;-49
2023/09/14 13:39:10;;;;;;;2.45;0.98;;;;;;;;;;5088300;28;19920;-50
2023/09/14 13:41:37;;;;;;;1.80;0.85;;;;;;;;;;5091755;28;20504;-48
2023/09/14 13:44:06;;;;;;;1.40;0.75;;;;;;;;;;5086193;28;20052;-48
2023/09/14 13:46:37;;;;;;;2.05;0.90;;;;;;;;;;5093495;28;20496;-51
2023/09/14 13:49:06;;;;;;;1.88;1.00;;;;;;;;;;5088955;28;20480;-48
2023/09/14 13:51:35;;;;;;;1.60;0.80;;;;;;;;;;5093149;28;20048;-48
2023/09/14 13:54:02;;;;;;;2.45;0.75;;;;;;;;;;5082888;28;20052;-48
2023/09/14 13:56:30;;;;;;;1.90;0.90;;;;;;;;;;5076912;28;20044;-48
2023/09/14 13:58:57;;;;;;;6.50;1.08;;;;;;;;;;5087075;28;20400;-51
2023/09/14 14:01:27;;;;;;;2.78;1.02;;;;;;;;;;5092835;28;20052;-50
2023/09/14 14:03:55;;;;;;;4.10;1.17;;;;;;;;;;5077081;28;20052;-48
2023/09/14 14:06:22;;;;;;;2.83;0.80;;;;;;;;;;5079630;28;20052;-48
2023/09/14 14:08:51;;;;;;;0.95;0.50;;;;;;;;;;5092741;28;20501;-49
2023/09/14 14:11:21;;;;;;;3.10;0.95;;;;;;;;;;5088854;28;20048;-48
2023/09/14 14:13:51;;;;;;;2.05;1.00;;;;;;;;;;5078479;28;20052;-61
2023/09/14 14:16:18;;;;;;;1.85;0.90;;;;;;;;;;5093030;28;20051;-61
2023/09/14 14:18:45;;;;;;;1.08;0.65;;;;;;;;;;5079964;28;20063;-62
2023/09/14 14:21:13;;;;;;;2.53;1.25;;;;;;;;;;5076494;28;20044;-61
2023/09/14 14:23:40;;;;;;;2.80;1.10;;;;;;;;;;5081020;28;20058;-62
2023/09/14 14:26:06;;;;;;;1.63;0.73;;;;;;;;;;5075300;28;20055;-61
2023/09/14 14:28:37;;;;;;;2.20;1.00;;;;;;;;;;5074761;28;20063;-61
2023/09/14 14:31:04;;;;;;;2.17;0.80;;;;;;;;;;5092660;28;20507;-62
2023/09/14 14:33:32;;;;;;;1.42;0.63;;;;;;;;;;5088296;28;20048;-62
2023/09/14 14:35:59;;;;;;;3.08;0.80;;;;;;;;;;5090033;28;20048;-62
2023/09/14 14:38:31;;;;;;;2.78;0.90;;;;;;;;;;5092527;28;20055;-62
2023/09/14 14:40:58;;;;;;;2.63;1.23;;;;;;;;;;5091912;28;20074;-61
2023/09/14 14:43:25;;;;;;;2.97;1.38;;;;;;;;;;5091490;28;20063;-62
2023/09/14 14:45:56;;;;;;;1.23;0.70;;;;;;;;;;5086541;28;20048;-62